Latest Weather Observations for Warburton

IDD60801

Issued at 4:02 pm CST Friday 27 March 2015 (issued every 30 minutes, with the page automatically refreshed every 10 minutes)

About weather observations | Map of weather stations | Latest weather observations for NT | Other Formats
Station Details ID: 013011 Name: WARBURTON AIRFIELD Lat: -26.13 Lon: 126.58 Height: 459.0 m
Data from the previous 72 hours. | See also: Recent months at Warburton
Date/Time
CST
Temp
°C
App
Temp
°C
Dew
Point
Rel
Hum
%
Delta-T
°C
Wind Press
QNH
hPa
Press
MSL
hPa
Rain
since 9 am
mm
Dir
 
Spd
km/h
Gust
km/h
Spd
kts
Gust
kts
27/04:00pm 31.2 26.9 7.0 22 13.4 SE 19 26 10 14 1018.3 - 0.0
27/03:30pm 31.3 26.8 7.1 22 13.4 SE 20 35 11 19 1018.8 - 0.0
27/03:00pm 31.5 28.4 7.2 22 13.5 SSE 13 22 7 12 1019.3 - 0.0
27/02:30pm 32.2 28.7 7.1 21 14.0 E 15 24 8 13 1019.7 - 0.0
27/02:00pm 31.1 27.4 6.2 21 13.6 ENE 15 26 8 14 1020.1 - 0.0
27/01:30pm 29.2 26.3 6.6 24 12.2 NE 11 19 6 10 1020.8 1017.8 0.0
27/01:00pm 28.7 25.5 6.7 25 11.9 NE 13 20 7 11 1021.5 - 0.0
27/12:30pm 27.8 23.8 6.6 26 11.4 ENE 17 22 9 12 1022.4 - 0.0
27/12:00pm 27.2 22.8 6.6 27 11.1 E 19 26 10 14 1022.6 - 0.0
27/11:30am 27.7 23.7 6.5 26 11.4 NE 17 26 9 14 1023.0 - 0.0
27/11:00am 26.9 22.3 6.3 27 11.0 NE 20 28 11 15 1023.1 - 0.0
27/10:30am 27.3 21.8 6.1 26 11.3 NE 24 33 13 18 1023.3 1020.3 0.0
27/10:00am 26.1 21.0 6.2 28 10.6 NE 22 35 12 19 1023.4 - 0.0
27/09:30am 24.9 19.1 6.1 30 9.9 NE 26 39 14 21 1023.5 - 0.0
27/09:00am 23.1 18.7 6.4 34 8.7 E 19 28 10 15 1023.4 - 0.0
27/08:30am 22.8 18.4 6.6 35 8.5 ESE 19 28 10 15 1023.0 - 0.0
27/08:00am 22.0 18.1 7.0 38 7.9 E 17 24 9 13 1022.9 - 0.0
27/07:30am 20.6 17.2 7.6 43 6.8 E 15 22 8 12 1022.5 1019.5 0.0
27/07:00am 20.3 16.9 7.7 44 6.6 E 15 20 8 11 1022.5 - 0.0
27/06:30am 20.3 16.5 7.7 44 6.6 ESE 17 20 9 11 1022.3 - 0.0
27/06:00am 20.4 16.2 7.4 43 6.8 ESE 19 26 10 14 1022.1 - 0.0
27/05:30am 20.7 16.8 7.3 42 7.0 SE 17 22 9 12 1022.1 - 0.0
27/05:00am 21.1 17.2 7.3 41 7.3 ESE 17 24 9 13 1021.7 - 0.0
27/04:30am 21.3 16.9 7.2 40 7.4 ESE 20 28 11 15 1021.6 1018.6 0.0
27/04:00am 21.5 16.7 7.3 40 7.5 E 22 32 12 17 1021.6 - 0.0
27/03:30am 21.8 17.4 7.2 39 7.7 ESE 20 26 11 14 1022.1 - 0.0
27/03:00am 22.3 18.0 6.9 37 8.1 ESE 19 24 10 13 1022.1 - 0.0
27/02:30am 22.8 17.9 7.0 36 8.3 ESE 22 30 12 16 1022.4 - 0.0
27/02:00am 23.3 17.7 7.0 35 8.6 E 26 35 14 19 1022.5 - 0.0
27/01:30am 23.8 18.5 7.0 34 8.9 ESE 24 35 13 19 1022.9 1019.9 0.0
27/01:00am 24.0 18.3 6.7 33 9.1 ESE 26 33 14 18 1022.9 - 0.0
27/12:30am 24.1 18.3 6.4 32 9.3 ESE 26 37 14 20 1023.0 - 0.0
27/12:00am 24.2 18.8 6.5 32 9.3 ESE 24 35 13 19 1023.3 - 0.0
 
Date/Time
CST
Temp
°C
App
Temp
°C
Dew
Point
Rel
Hum
%
Delta-T
°C
Wind Press
QNH
hPa
Press
MSL
hPa
Rain
since 9 am
mm
Dir
 
Spd
km/h
Gust
km/h
Spd
kts
Gust
kts
26/11:30pm 23.9 19.5 6.7 33 9.1 ESE 19 26 10 14 1023.6 - 0.0
26/11:00pm 24.0 19.6 6.7 33 9.1 SE 19 26 10 14 1023.6 - 0.0
26/10:30pm 24.5 20.1 6.7 32 9.4 ESE 19 26 10 14 1023.8 1020.8 0.0
26/10:00pm 25.1 20.6 6.8 31 9.8 ESE 20 28 11 15 1023.6 - 0.0
26/09:30pm 25.6 20.7 6.7 30 10.1 SE 22 28 12 15 1023.8 - 0.0
26/09:00pm 25.9 20.3 7.0 30 10.2 SE 26 35 14 19 1023.3 - 0.0
26/08:30pm 26.4 21.8 6.4 28 10.7 SE 20 30 11 16 1023.1 - 0.0
26/08:00pm 26.7 21.3 6.2 27 10.9 ESE 24 30 13 16 1022.6 - 0.0
26/07:30pm 27.1 21.6 6.0 26 11.2 ESE 24 35 13 19 1022.3 1019.3 0.0
26/07:00pm 27.8 21.8 5.4 24 11.8 ESE 26 35 14 19 1022.0 - 0.0
26/06:30pm 28.2 22.2 5.1 23 12.2 ESE 26 35 14 19 1021.7 - 0.0
26/06:00pm 29.1 23.1 5.2 22 12.7 SE 26 37 14 20 1021.3 - 0.0
26/05:30pm 29.3 22.9 5.4 22 12.7 ESE 28 37 15 20 1021.2 - 0.0
26/05:00pm 30.2 24.2 5.5 21 13.2 SE 26 39 14 21 1021.2 - 0.0
26/04:30pm 31.0 26.7 5.4 20 13.7 E 17 30 9 16 1021.5 1018.5 0.0
26/04:00pm 30.6 26.0 5.8 21 13.4 SE 19 28 10 15 1021.6 - 0.0
26/03:30pm 30.5 26.1 5.0 20 13.6 ESE 17 26 9 14 1021.8 - 0.0
26/03:00pm 29.8 24.9 5.1 21 13.1 E 20 32 11 17 1022.1 - 0.0
26/02:30pm 29.6 24.9 5.0 21 13.0 E 19 28 10 15 1022.6 - 0.0
26/02:00pm 28.8 24.1 5.0 22 12.6 E 19 33 10 18 1023.0 - 0.0
26/01:30pm 28.4 23.6 4.6 22 12.4 E 19 30 10 16 1023.5 1020.6 0.0
26/01:00pm 28.1 23.4 5.0 23 12.1 E 19 32 10 17 1024.1 - 0.0
26/12:30pm 27.4 21.2 4.5 23 11.9 E 26 39 14 21 1024.5 - 0.0
26/12:00pm 27.0 21.3 4.7 24 11.6 E 24 41 13 22 1025.0 - 0.0
26/11:30am 25.4 19.8 5.6 28 10.3 E 24 35 13 19 1025.2 - 0.0
26/11:00am 23.8 17.5 5.7 31 9.4 E 28 39 15 21 1025.6 - 0.0
26/10:30am 23.2 16.5 5.6 32 9.0 E 30 41 16 22 1025.7 1022.8 0.2
26/10:00am 22.7 15.6 5.6 33 8.8 E 32 43 17 23 1025.6 - 0.2
26/09:30am 21.3 13.9 5.2 35 8.1 ESE 33 44 18 24 1025.4 - 0.2
26/09:00am 19.7 12.4 5.4 39 7.2 ESE 33 44 18 24 1025.2 - 0.2
26/08:30am 19.4 13.1 5.8 41 6.9 ESE 28 39 15 21 1025.0 - 0.2
26/08:00am 17.8 13.3 7.0 49 5.5 ESE 20 28 11 15 1024.5 - 0.2
26/07:30am 17.2 12.5 7.8 54 4.8 SE 22 30 12 16 1024.2 1021.2 0.2
26/07:00am 17.3 12.9 7.6 53 5.0 ESE 20 30 11 16 1023.5 - 0.2
26/06:30am 17.2 13.2 8.4 56 4.6 ESE 19 26 10 14 1023.3 - 0.2
26/06:00am 17.3 13.4 8.7 57 4.5 SE 19 24 10 13 1023.2 - 0.2
26/05:30am 17.4 14.0 9.1 58 4.4 SE 17 24 9 13 1023.1 - 0.2
26/05:00am 17.5 13.8 9.4 59 4.3 SE 19 26 10 14 1022.8 - 0.2
26/04:30am 17.7 13.4 9.3 58 4.5 ESE 22 32 12 17 1022.7 1019.7 0.2
26/04:00am 17.8 14.3 10.2 61 4.1 ESE 19 24 10 13 1022.7 - 0.2
26/03:30am 18.1 13.7 10.5 61 4.2 SE 24 32 13 17 1022.3 - 0.2
26/03:00am 18.8 14.2 9.8 56 4.9 ESE 24 33 13 18 1022.5 - 0.2
26/02:30am 19.0 14.1 9.8 55 5.0 ESE 26 35 14 19 1022.7 - 0.2
26/02:00am 19.0 13.3 9.8 55 5.0 ESE 30 43 16 23 1022.7 - 0.2
26/01:30am 19.1 13.8 9.9 55 5.0 ESE 28 43 15 23 1022.7 1019.7 0.2
26/01:00am 19.2 14.4 10.2 56 4.9 ESE 26 35 14 19 1022.8 - 0.2
26/12:30am 19.4 14.6 10.4 56 5.0 ESE 26 33 14 18 1022.9 - 0.2
26/12:00am 19.6 14.7 10.0 54 5.3 SE 26 35 14 19 1022.9 - 0.2
 
Date/Time
CST
Temp
°C
App
Temp
°C
Dew
Point
Rel
Hum
%
Delta-T
°C
Wind Press
QNH
hPa
Press
MSL
hPa
Rain
since 9 am
mm
Dir
 
Spd
km/h
Gust
km/h
Spd
kts
Gust
kts
25/11:30pm 19.5 15.1 10.5 56 5.0 SE 24 35 13 19 1022.6 - 0.2
25/11:00pm 20.9 17.1 8.9 46 6.5 SSE 19 28 10 15 1022.9 - 0.0
25/10:30pm 20.8 16.4 9.1 47 6.3 SE 22 30 12 16 1022.7 1019.7 0.0
25/10:00pm 20.5 14.8 9.7 50 5.9 SE 30 43 16 23 1022.7 - 0.0
25/09:30pm 21.2 15.9 8.5 44 6.8 SE 26 33 14 18 1022.8 - 0.0
25/09:00pm 21.2 16.8 9.1 46 6.6 SSE 22 30 12 16 1022.4 - 0.0
25/08:30pm 22.9 17.9 6.6 35 8.5 SSE 22 30 12 16 1022.5 - 0.0
25/08:00pm 23.4 19.0 7.5 36 8.5 SE 20 32 11 17 1022.2 - 0.0
25/07:30pm 23.2 19.2 8.9 40 7.8 SSE 20 30 11 16 1021.6 1018.6 0.0
25/07:00pm 23.7 18.0 8.5 38 8.3 SE 28 35 15 19 1021.6 - 0.0
25/06:30pm 24.4 19.0 8.0 35 8.9 SE 26 35 14 19 1021.2 - 0.0
25/06:00pm 24.8 19.8 7.9 34 9.2 SSE 24 32 13 17 1020.9 - 0.0
25/05:30pm 25.6 19.5 6.7 30 10.1 SSE 28 39 15 21 1020.4 - 0.0
25/05:00pm 25.6 19.4 6.3 29 10.2 SSE 28 39 15 21 1020.3 - 0.0
25/04:30pm 25.9 20.3 7.0 30 10.1 SSE 26 35 14 19 1020.2 1017.2 0.0
25/04:00pm 26.9 22.5 8.8 32 10.1 SSE 22 32 12 17 1020.0 - 0.0
25/03:30pm 27.3 23.3 9.2 32 10.2 SSE 20 30 11 16 1020.3 - 0.0
25/03:00pm 27.6 23.7 9.4 32 10.3 SE 20 28 11 15 1020.3 - 0.0
25/02:30pm 28.2 24.7 10.9 34 10.0 ESE 20 33 11 18 1020.4 - 0.0
25/02:00pm 27.1 24.5 10.7 35 9.4 ESE 15 28 8 15 1020.8 - 0.0
25/01:30pm 26.3 23.0 10.9 38 8.8 ESE 19 24 10 13 1021.2 1018.2 0.0
25/01:00pm 25.5 22.6 10.9 40 8.4 SSE 17 24 9 13 1021.6 - 0.0
25/12:30pm 25.2 22.3 11.0 41 8.1 SSE 17 24 9 13 1021.9 - 0.0
25/12:00pm 24.5 21.4 11.5 44 7.5 ESE 19 24 10 13 1022.1 - 0.0
25/11:30am 24.0 20.7 11.0 44 7.4 SE 19 28 10 15 1022.5 - 0.0
25/11:00am 23.5 20.3 11.2 46 7.0 SE 19 28 10 15 1022.7 - 0.0
25/10:30am 21.9 18.9 11.9 53 5.7 ESE 19 26 10 14 1022.7 1019.7 3.2
25/10:00am 20.5 17.2 11.7 57 5.0 SE 20 28 11 15 1022.7 - 3.2
25/09:30am 20.2 17.2 11.9 59 4.7 SSE 19 24 10 13 1022.8 - 3.2
25/09:00am 19.4 15.8 11.9 62 4.2 SE 22 28 12 15 1022.2 - 3.2
25/08:30am 17.7 16.4 12.4 71 3.0 SSE 11 19 6 10 1021.9 - 3.2
25/08:00am 16.8 15.5 12.5 76 2.4 S 11 17 6 9 1021.8 - 3.2
25/07:30am 16.2 15.0 12.9 81 1.9 SE 11 17 6 9 1021.3 1018.3 3.2
25/07:00am 15.6 14.6 13.3 86 1.3 ESE 11 15 6 8 1020.8 - 3.2
25/06:30am 15.3 14.8 13.7 90 0.9 SSE 9 13 5 7 1020.7 - 3.2
25/06:00am 15.0 15.0 13.7 92 0.7 SSE 6 9 3 5 1020.5 - 3.2
25/05:30am 15.0 14.4 13.4 90 0.9 SSE 9 11 5 6 1020.1 - 3.2
25/05:00am 15.7 15.1 13.4 86 1.3 SSE 9 13 5 7 1020.1 - 3.2
25/04:30am 15.8 15.1 13.1 84 1.5 SSE 9 11 5 6 1020.0 1017.0 3.2
25/04:00am 16.0 14.5 13.1 83 1.7 S 13 15 7 8 1019.8 - 3.2
25/03:30am 16.2 15.7 12.7 80 2.0 E 7 11 4 6 1019.8 - 3.2
25/03:00am 16.6 15.0 12.8 78 2.2 SE 13 17 7 9 1019.9 - 3.2
25/02:30am 16.6 15.8 12.9 79 2.1 SSE 9 13 5 7 1020.3 - 3.2
25/02:00am 17.0 16.6 12.9 77 2.3 SSE 7 9 4 5 1020.6 - 3.2
25/01:30am 17.5 16.5 12.4 72 2.9 SE 9 11 5 6 1020.5 1017.5 3.2
25/01:00am 17.8 16.3 12.0 69 3.3 ESE 11 17 6 9 1020.2 - 3.2
25/12:30am 18.1 14.9 11.9 67 3.5 ESE 20 26 11 14 1020.1 - 3.2
25/12:00am 18.1 15.6 12.3 69 3.3 ESE 17 22 9 12 1020.4 - 3.2
 
Date/Time
CST
Temp
°C
App
Temp
°C
Dew
Point
Rel
Hum
%
Delta-T
°C
Wind Press
QNH
hPa
Press
MSL
hPa
Rain
since 9 am
mm
Dir
 
Spd
km/h
Gust
km/h
Spd
kts
Gust
kts
24/11:30pm 18.2 16.1 12.4 69 3.3 SE 15 20 8 11 1021.0 - 3.2
24/11:00pm 18.4 15.9 12.2 67 3.5 SE 17 20 9 11 1021.2 - 3.2
24/10:30pm 18.1 15.5 12.1 68 3.4 ESE 17 24 9 13 1021.0 1018.0 3.2
24/10:00pm 18.1 15.1 12.1 68 3.4 ESE 19 26 10 14 1020.9 - 3.2
24/09:30pm 18.2 15.7 12.4 69 3.3 E 17 24 9 13 1021.2 - 3.2
24/09:00pm 17.9 15.7 13.4 75 2.6 E 17 24 9 13 1021.0 - 3.2
24/08:30pm 17.3 15.3 13.8 80 2.0 E 17 24 9 13 1021.0 - 3.2
24/08:00pm 17.3 15.9 14.6 84 1.6 SE 15 22 8 12 1020.9 - 2.8
24/07:30pm 17.7 17.6 15.0 84 1.6 SE 9 17 5 9 1021.2 1018.2 1.6
24/07:00pm 18.1 15.6 13.6 75 2.6 S 19 24 10 13 1020.5 - 0.6
24/06:30pm 20.3 17.4 12.3 60 4.6 S 19 24 10 13 1020.4 - 0.2
24/06:00pm 23.8 18.6 7.4 35 8.8 SSE 24 32 13 17 1019.8 - 0.0

Other Formats:

Comma delimited format used in spreadsheet applications
http://www.bom.gov.au/fwo/IDD60801/IDD60801.94457.axf

JavaScript Object Notation format (JSON) in row-major order
http://www.bom.gov.au/fwo/IDD60801/IDD60801.94457.json